METAR AND TAF INFORMATION
METAR FOR WPDL
ADDS - METARS form results

(1950 UTC 20 June 2019)
Data provider http://aviationweather.gov/metar/data/
 
Forecast for: WPDL (DILLI ARPT/TIMOR, TP)
Text: TAF WPDL 201707Z 2018/2106 15007KT CAVOK
Forecast period: 1800 UTC 20 June 2019 to 0100 UTC 21 June 2019
Forecast type: FROM: standard forecast or significant change
Winds: from the SSE (150 degrees) at 8 MPH (7 knots; 3.6 m/s)
Visibility: 6 or more miles 10+ km)
Ceiling: unknown
Clouds: missing
Weather: NSW  (no significant weather)
Text: FM210100 31010KT CAVOK
Forecast period: 0100 to 0600 UTC 21 June 2019
Forecast type: FROM: standard forecast or significant change
Winds: from the NW (310 degrees) at 12 MPH (10 knots; 5.1 m/s)
Visibility: 6 or more miles 10+ km)
Ceiling: unknown
Clouds: missing
Weather: NSW  (no significant weather)

 AIRPORT MAP

 RUNWAY INFORMATION
Runway 08 Runway length 6065 ft Runway width 98 ft
Runway elevation 17 ft Runway displaced threshold 201 ft Runway heading 77
Runway 26 Runway length 6065 ft Runway width 98 ft
Runway elevation 25 ft Runway displaced threshold 0 ft Runway heading 257

 AIRPORT FREQUENCIES
Type APP Name COMORO APP Frequency 122.9 MHZ
Type GND Name COMORO GND Frequency 133.9 MHZ
Type MISC Name PCL Frequency 125.5 MHZ

 AIRPORT NEAR NAVIGATION AIDS
Type VOR-DME Name Dili Frequency 113400 KHZ
Type NDB Name Dili Frequency 391 KHZ



Powered by Virtual Airlines Manager [v2.6.2]